createdAt,value
2019-01-21T00:02:13.969Z,100272.36
2019-01-21T00:04:45.376Z,100278.72
2019-01-21T00:07:16.257Z,100283.35
2019-01-21T00:09:47.195Z,100280.77
2019-01-21T00:12:18.596Z,100278.70
2019-01-21T00:14:50.453Z,100288.45
2019-01-21T00:17:22.413Z,100285.02
2019-01-21T00:19:53.349Z,100284.62
2019-01-21T00:22:24.314Z,100282.09
2019-01-21T00:24:55.224Z,100281.73
2019-01-21T00:27:26.103Z,100279.09
2019-01-21T00:29:56.923Z,100276.19
2019-01-21T00:32:27.942Z,100279.97
2019-01-21T00:34:58.762Z,100281.69
2019-01-21T00:37:29.806Z,100277.91
2019-01-21T00:40:01.189Z,100274.45
2019-01-21T00:42:32.054Z,100278.98
2019-01-21T00:45:02.939Z,100283.18
2019-01-21T00:47:33.812Z,100285.61
2019-01-21T00:50:05.415Z,100284.87
2019-01-21T00:52:36.591Z,100287.86
2019-01-21T00:55:07.920Z,100291.61
2019-01-21T00:57:39.026Z,100293.36
2019-01-21T01:00:19.935Z,100298.83
2019-01-21T01:02:50.888Z,100304.32
2019-01-21T01:05:21.962Z,100302.77
2019-01-21T01:07:52.838Z,100300.27
2019-01-21T01:10:24.047Z,100309.61
2019-01-21T01:12:54.930Z,100313.78
2019-01-21T01:15:26.312Z,100309.94
2019-01-21T01:17:57.251Z,100312.94
2019-01-21T01:20:28.481Z,100318.84
2019-01-21T01:23:00.559Z,100321.02
2019-01-21T01:25:31.423Z,100323.15
2019-01-21T01:28:02.797Z,100320.15
2019-01-21T01:30:43.832Z,100325.28
2019-01-21T01:33:14.877Z,100334.22
2019-01-21T01:35:45.902Z,100335.41
2019-01-21T01:38:16.911Z,100332.85
2019-01-21T01:40:48.007Z,100332.83
2019-01-21T01:43:19.338Z,100330.72
2019-01-21T01:45:50.374Z,100330.72
2019-01-21T01:48:21.300Z,100331.22
2019-01-21T01:50:52.406Z,100323.91
2019-01-21T01:53:23.477Z,100325.14
2019-01-21T01:55:54.357Z,100328.07
2019-01-21T01:58:25.441Z,100318.39
2019-01-21T02:00:56.246Z,100326.34
2019-01-21T02:03:27.028Z,100327.43
2019-01-21T02:05:58.097Z,100330.02
2019-01-21T02:08:28.977Z,100329.20
2019-01-21T02:11:00.098Z,100320.64
2019-01-21T02:13:31.446Z,100324.67
2019-01-21T02:16:02.794Z,100326.91
2019-01-21T02:18:33.745Z,100325.97
2019-01-21T02:21:05.913Z,100329.02
2019-01-21T02:23:38.078Z,100334.44
2019-01-21T02:26:19.848Z,100335.22
2019-01-21T02:29:06.047Z,100330.34
2019-01-21T02:32:13.897Z,100328.70
2019-01-21T02:35:18.456Z,100334.30
2019-01-21T02:38:10.204Z,100325.47
2019-01-21T02:40:54.210Z,100322.18
2019-01-21T02:43:55.820Z,100329.41
2019-01-21T02:46:36.344Z,100313.77
2019-01-21T02:49:48.825Z,100319.73
2019-01-21T02:53:11.272Z,100315.95
2019-01-21T02:56:38.369Z,100317.21
2019-01-21T02:59:51.887Z,100315.58
2019-01-21T03:03:05.924Z,100315.54
2019-01-21T03:06:10.647Z,100307.53
2019-01-21T03:09:29.152Z,100303.74
2019-01-21T03:12:40.106Z,100299.50
2019-01-21T03:15:33.908Z,100297.81
2019-01-21T03:18:39.115Z,100303.27
2019-01-21T03:21:29.780Z,100308.69
2019-01-21T03:24:43.035Z,100301.95
2019-01-21T03:27:56.900Z,100309.54
2019-01-21T03:30:46.664Z,100311.11
2019-01-21T03:33:46.683Z,100306.81
2019-01-21T03:37:07.304Z,100307.63
2019-01-21T03:40:17.749Z,100307.71
2019-01-21T03:43:17.250Z,100314.08
2019-01-21T03:46:13.418Z,100313.19
2019-01-21T03:49:21.390Z,100322.95
2019-01-21T03:52:38.312Z,100320.39
2019-01-21T03:55:12.974Z,100325.14
2019-01-21T03:58:17.191Z,100325.98
2019-01-21T04:01:07.789Z,100319.73
2019-01-21T04:04:03.842Z,100316.77
2019-01-21T04:07:12.277Z,100321.94
2019-01-21T04:10:02.763Z,100325.28
2019-01-21T04:12:56.820Z,100321.48
2019-01-21T04:16:15.155Z,100319.41
2019-01-21T04:19:13.201Z,100321.48
2019-01-21T04:22:23.398Z,100321.45
2019-01-21T04:25:04.952Z,100326.97
2019-01-21T04:28:22.279Z,100326.48
2019-01-21T04:31:45.681Z,100325.23
2019-01-21T04:35:02.533Z,100326.55
2019-01-21T04:38:13.447Z,100325.70
2019-01-21T04:41:02.339Z,100321.55
2019-01-21T04:43:40.514Z,100335.90
2019-01-21T04:46:25.653Z,100331.69
2019-01-21T04:49:55.664Z,100333.42
2019-01-21T04:52:56.556Z,100333.44
2019-01-21T04:55:57.696Z,100339.39
2019-01-21T04:59:02.577Z,100340.23
2019-01-21T05:02:06.758Z,100344.89
2019-01-21T05:05:05.631Z,100337.73
2019-01-21T05:08:04.868Z,100336.94
2019-01-21T05:10:50.204Z,100346.65
2019-01-21T05:13:45.214Z,100330.58
2019-01-21T05:16:50.553Z,100339.48
2019-01-21T05:19:52.694Z,100336.53
2019-01-21T05:22:33.270Z,100336.06
2019-01-21T05:25:38.133Z,100339.48
2019-01-21T05:28:23.209Z,100334.01
2019-01-21T05:31:34.249Z,100340.39
2019-01-21T05:34:32.302Z,100341.22
2019-01-21T05:37:28.464Z,100348.02
2019-01-21T05:40:49.599Z,100343.80
2019-01-21T05:43:36.690Z,100349.72
2019-01-21T05:46:48.481Z,100356.45
2019-01-21T05:49:47.569Z,100359.81
2019-01-21T05:52:42.873Z,100359.82
2019-01-21T05:56:00.834Z,100365.76
2019-01-21T05:58:48.750Z,100368.27
2019-01-21T06:01:55.589Z,100362.37
2019-01-21T06:04:55.720Z,100365.75
2019-01-21T06:08:08.773Z,100372.09
2019-01-21T06:10:47.428Z,100378.83
2019-01-21T06:14:11.760Z,100375.92
2019-01-21T06:17:02.211Z,100381.38
2019-01-21T06:20:11.365Z,100376.73
2019-01-21T06:22:56.778Z,100385.59
2019-01-21T06:26:21.919Z,100378.02
2019-01-21T06:29:20.610Z,100383.08
2019-01-21T06:32:05.014Z,100388.55
2019-01-21T06:34:59.494Z,100397.84
2019-01-21T06:37:46.185Z,100400.78
2019-01-21T06:40:59.961Z,100396.14
2019-01-21T06:43:49.818Z,100391.94
2019-01-21T06:46:48.721Z,100386.86
2019-01-21T06:50:08.491Z,100391.09
2019-01-21T06:53:09.955Z,100397.00
2019-01-21T06:56:20.518Z,100391.52
2019-01-21T06:59:32.453Z,100398.68
2019-01-21T07:02:46.815Z,100397.83
2019-01-21T07:05:58.952Z,100403.73
2019-01-21T07:09:16.175Z,100407.53
2019-01-21T07:11:57.128Z,100413.03
2019-01-21T07:14:51.889Z,100418.92
2019-01-21T07:17:57.897Z,100422.26
2019-01-21T07:20:57.840Z,100424.81
2019-01-21T07:24:06.090Z,100418.88
2019-01-21T07:27:03.225Z,100421.00
2019-01-21T07:30:10.796Z,100419.31
2019-01-21T07:33:11.948Z,100416.34
2019-01-21T07:36:27.538Z,100412.99
2019-01-21T07:39:17.769Z,100410.89
2019-01-21T07:42:14.761Z,100408.80
2019-01-21T07:45:16.331Z,100397.81
2019-01-21T07:48:37.853Z,100397.40
2019-01-21T07:51:35.992Z,100397.41
2019-01-21T07:54:34.584Z,100394.47
2019-01-21T07:58:02.071Z,100393.63
2019-01-21T08:01:07.766Z,100399.51
2019-01-21T08:04:17.730Z,100406.26
2019-01-21T08:07:07.907Z,100410.48
2019-01-21T08:10:15.914Z,100414.70
2019-01-21T08:12:58.657Z,100423.13
2019-01-21T08:16:03.269Z,100424.00
2019-01-21T08:19:06.521Z,100418.91
2019-01-21T08:22:04.714Z,100426.11
2019-01-21T08:25:11.661Z,100418.92
2019-01-21T08:28:14.357Z,100421.88
2019-01-21T08:31:08.493Z,100423.98
2019-01-21T08:34:22.022Z,100423.50
2019-01-21T08:37:13.656Z,100421.81
2019-01-21T08:40:07.721Z,100426.41
2019-01-21T08:43:21.289Z,100421.79
2019-01-21T08:46:25.658Z,100425.17
2019-01-21T08:49:22.447Z,100428.95
2019-01-21T08:52:10.938Z,100431.45
2019-01-21T08:55:13.309Z,100435.23
2019-01-21T08:58:20.983Z,100430.98
2019-01-21T09:01:16.931Z,100432.69
2019-01-21T09:04:19.162Z,100437.25
2019-01-21T09:07:14.629Z,100444.86
2019-01-21T09:10:07.908Z,100454.55
2019-01-21T09:13:19.952Z,100443.88
2019-01-21T09:16:32.633Z,100448.88
2019-01-21T09:19:25.304Z,100457.27
2019-01-21T09:22:19.194Z,100459.27
2019-01-21T09:25:22.483Z,100457.58
2019-01-21T09:28:18.325Z,100462.21
2019-01-21T09:31:31.772Z,100456.23
2019-01-21T09:34:40.273Z,100462.02
2019-01-21T09:38:01.095Z,100473.45
2019-01-21T09:41:07.421Z,100472.05
2019-01-21T09:44:24.878Z,100472.30
2019-01-21T09:46:54.589Z,100472.18
2019-01-21T09:49:24.169Z,100476.32
2019-01-21T09:52:05.232Z,100479.35
2019-01-21T09:54:37.950Z,100478.83
2019-01-21T09:57:19.543Z,100479.51
2019-01-21T09:59:53.138Z,100480.64
2019-01-21T10:02:42.819Z,100476.28
2019-01-21T10:05:15.428Z,100474.89
2019-01-21T10:08:21.983Z,100470.10
2019-01-21T10:11:43.871Z,100472.44
2019-01-21T10:14:53.964Z,100460.98
2019-01-21T10:17:34.921Z,100466.36
2019-01-21T10:20:28.847Z,100460.91
2019-01-21T10:23:27.608Z,100457.92
2019-01-21T10:26:35.365Z,100452.59
2019-01-21T10:29:37.913Z,100466.97
2019-01-21T10:33:00.145Z,100459.69
2019-01-21T10:36:17.362Z,100446.73
2019-01-21T10:39:38.924Z,100453.31
2019-01-21T10:42:39.589Z,100444.33
2019-01-21T10:45:24.780Z,100444.00
2019-01-21T10:48:31.342Z,100436.69
2019-01-21T10:51:17.140Z,100440.41
2019-01-21T10:54:17.910Z,100434.64
2019-01-21T10:57:16.704Z,100431.47
2019-01-21T11:00:30.516Z,100424.88
2019-01-21T11:03:45.745Z,100421.30
2019-01-21T11:06:53.576Z,100415.61
2019-01-21T11:09:57.441Z,100414.86
2019-01-21T11:12:54.208Z,100408.94
2019-01-21T11:15:39.560Z,100411.02
2019-01-21T11:18:22.780Z,100410.56
2019-01-21T11:21:13.038Z,100404.17
2019-01-21T11:24:31.197Z,100401.05
2019-01-21T11:27:42.612Z,100396.28
2019-01-21T11:31:08.725Z,100392.56
2019-01-21T11:34:19.182Z,100394.02
2019-01-21T11:37:43.136Z,100386.78
2019-01-21T11:40:35.328Z,100386.19
2019-01-21T11:43:43.911Z,100381.42
2019-01-21T11:46:45.330Z,100378.34
2019-01-21T11:49:26.602Z,100379.77
2019-01-21T11:52:08.417Z,100371.41
2019-01-21T11:54:57.379Z,100367.05
2019-01-21T11:58:00.664Z,100366.31
2019-01-21T12:00:47.656Z,100363.81
2019-01-21T12:03:37.702Z,100363.00
2019-01-21T12:06:12.953Z,100357.28
2019-01-21T12:08:52.234Z,100362.97
2019-01-21T12:11:38.490Z,100362.16
2019-01-21T12:14:55.825Z,100359.70
2019-01-21T12:17:57.081Z,100360.58
2019-01-21T12:21:02.840Z,100350.11
2019-01-21T12:23:55.613Z,100345.98
2019-01-21T12:26:52.774Z,100348.20
2019-01-21T12:30:03.360Z,100349.27
2019-01-21T12:33:01.822Z,100345.54
2019-01-21T12:35:56.096Z,100348.67
2019-01-21T12:39:00.442Z,100338.06
2019-01-21T12:41:55.018Z,100339.81
2019-01-21T12:44:43.013Z,100335.45
2019-01-21T12:48:04.218Z,100329.75
2019-01-21T12:50:59.720Z,100324.17
2019-01-21T12:54:06.323Z,100317.84
2019-01-21T12:57:16.877Z,100316.09
2019-01-21T13:00:38.080Z,100321.98
2019-01-21T13:04:02.107Z,100313.61
2019-01-21T13:06:53.690Z,100304.98
2019-01-21T13:09:45.736Z,100299.31
2019-01-21T13:12:57.752Z,100293.25
2019-01-21T13:15:57.597Z,100289.81
2019-01-21T13:19:00.702Z,100297.80
2019-01-21T13:22:30.920Z,100289.73
2019-01-21T13:25:52.257Z,100287.98
2019-01-21T13:29:18.357Z,100284.47
2019-01-21T13:32:29.634Z,100283.26
2019-01-21T13:35:28.669Z,100294.29
2019-01-21T13:38:45.576Z,100288.13
2019-01-21T13:41:48.120Z,100280.97
2019-01-21T13:44:45.398Z,100284.90
2019-01-21T13:47:44.982Z,100280.08
2019-01-21T13:50:47.100Z,100280.58
2019-01-21T13:54:07.959Z,100282.96
2019-01-21T13:57:36.667Z,100274.28
2019-01-21T14:00:37.540Z,100271.42
2019-01-21T14:03:26.197Z,100266.68
2019-01-21T14:06:23.590Z,100266.77
2019-01-21T14:09:26.284Z,100266.88
2019-01-21T14:12:22.815Z,100268.16
2019-01-21T14:15:25.451Z,100259.39
2019-01-21T14:18:51.190Z,100260.78
2019-01-21T14:21:56.453Z,100255.55
2019-01-21T14:25:04.913Z,100252.31
2019-01-21T14:27:56.010Z,100253.09
2019-01-21T14:31:00.200Z,100247.36
2019-01-21T14:33:47.584Z,100243.62
2019-01-21T14:36:58.566Z,100234.38
2019-01-21T14:39:47.544Z,100227.67
2019-01-21T14:42:54.331Z,100224.77
2019-01-21T14:46:06.708Z,100228.88
2019-01-21T14:49:04.730Z,100221.27
2019-01-21T14:52:13.341Z,100222.67
2019-01-21T14:55:17.657Z,100219.47
2019-01-21T14:58:38.391Z,100222.53
2019-01-21T15:01:46.279Z,100219.87
2019-01-21T15:04:49.256Z,100224.81
2019-01-21T15:07:35.294Z,100224.27
2019-01-21T15:10:50.560Z,100232.03
2019-01-21T15:13:50.832Z,100235.75
2019-01-21T15:17:00.083Z,100240.41
2019-01-21T15:20:17.677Z,100242.84
2019-01-21T15:23:15.725Z,100245.35
2019-01-21T15:26:08.524Z,100241.72
2019-01-21T15:29:09.937Z,100236.44
2019-01-21T15:32:12.837Z,100240.91
2019-01-21T15:35:15.528Z,100236.00
2019-01-21T15:38:11.709Z,100231.36
2019-01-21T15:41:22.384Z,100233.20
2019-01-21T15:44:46.542Z,100227.14
2019-01-21T15:47:44.641Z,100228.78
2019-01-21T15:50:42.099Z,100225.86
2019-01-21T15:53:35.173Z,100232.07
2019-01-21T15:56:59.303Z,100240.34
2019-01-21T16:00:23.819Z,100244.79
2019-01-21T16:03:19.332Z,100249.94
2019-01-21T16:06:09.322Z,100245.33
2019-01-21T16:08:51.962Z,100251.80
2019-01-21T16:12:28.070Z,100261.84
2019-01-21T16:15:13.859Z,100262.02
2019-01-21T16:18:02.353Z,100259.73
2019-01-21T16:20:47.563Z,100256.95
2019-01-21T16:24:00.246Z,100250.77
2019-01-21T16:26:52.120Z,100254.36
2019-01-21T16:29:40.697Z,100253.70
2019-01-21T16:32:42.573Z,100250.84
2019-01-21T16:35:48.549Z,100245.81
2019-01-21T16:38:51.312Z,100248.47
2019-01-21T16:41:45.258Z,100245.13
2019-01-21T16:44:16.434Z,100248.65
2019-01-21T16:46:47.232Z,100254.17
2019-01-21T16:49:18.104Z,100246.33
2019-01-21T16:51:49.111Z,100249.87
2019-01-21T16:54:19.973Z,100255.88
2019-01-21T16:56:50.827Z,100255.92
2019-01-21T16:59:22.032Z,100256.03
2019-01-21T17:01:53.071Z,100252.67
2019-01-21T17:04:23.949Z,100265.88
2019-01-21T17:06:54.903Z,100256.97
2019-01-21T17:09:27.416Z,100256.19
2019-01-21T17:11:58.275Z,100257.03
2019-01-21T17:14:29.120Z,100259.30
2019-01-21T17:17:00.134Z,100256.86
2019-01-21T17:19:31.233Z,100259.30
2019-01-21T17:22:02.447Z,100255.85
2019-01-21T17:24:33.578Z,100258.12
2019-01-21T17:27:05.015Z,100258.27
2019-01-21T17:29:36.217Z,100264.66
2019-01-21T17:32:07.568Z,100263.77
2019-01-21T17:34:38.513Z,100266.74
2019-01-21T17:37:09.608Z,100268.99
2019-01-21T17:39:40.632Z,100256.28
2019-01-21T17:42:11.601Z,100248.52
2019-01-21T17:44:42.498Z,100243.38
2019-01-21T17:47:13.643Z,100238.30
2019-01-21T17:49:44.631Z,100242.30
2019-01-21T17:52:15.765Z,100246.66
2019-01-21T17:54:47.108Z,100248.19
2019-01-21T17:57:18.193Z,100241.50
2019-01-21T17:59:49.221Z,100235.23
2019-01-21T18:02:20.006Z,100238.28
2019-01-21T18:04:50.888Z,100242.47
2019-01-21T18:07:21.921Z,100246.34
2019-01-21T18:09:52.866Z,100241.84
2019-01-21T18:12:23.655Z,100242.70
2019-01-21T18:14:54.997Z,100241.42
2019-01-21T18:17:26.029Z,100235.96
2019-01-21T18:19:58.121Z,100242.36
2019-01-21T18:22:29.191Z,100245.45
2019-01-21T18:25:00.298Z,100244.22
2019-01-21T18:27:31.090Z,100247.17
2019-01-21T18:30:02.178Z,100236.59
2019-01-21T18:32:33.489Z,100234.47
2019-01-21T18:35:05.751Z,100233.24
2019-01-21T18:37:36.564Z,100234.94
2019-01-21T18:40:10.497Z,100234.97
2019-01-21T18:42:41.598Z,100233.36
2019-01-21T18:45:14.219Z,100231.66
2019-01-21T18:47:45.406Z,100229.59
2019-01-21T18:50:16.643Z,100226.63
2019-01-21T18:52:49.098Z,100220.70
2019-01-21T18:55:20.257Z,100221.73
2019-01-21T18:57:55.900Z,100218.80
2019-01-21T19:00:25.749Z,100215.25
2019-01-21T19:02:57.242Z,100216.90
2019-01-21T19:05:29.702Z,100213.59
2019-01-21T19:08:01.141Z,100211.81
2019-01-21T19:10:32.324Z,100214.86
2019-01-21T19:13:03.799Z,100222.14
2019-01-21T19:15:34.862Z,100223.50
2019-01-21T19:18:06.954Z,100227.81
2019-01-21T19:20:37.866Z,100229.08
2019-01-21T19:23:08.874Z,100220.73
2019-01-21T19:25:39.781Z,100229.70
2019-01-21T19:28:10.783Z,100229.77
2019-01-21T19:30:41.713Z,100231.53
2019-01-21T19:33:12.715Z,100233.76
2019-01-21T19:35:43.531Z,100232.94
2019-01-21T19:38:14.785Z,100231.28
2019-01-21T19:40:45.883Z,100224.58
2019-01-21T19:43:16.833Z,100221.98
2019-01-21T19:45:47.940Z,100209.74
2019-01-21T19:48:19.394Z,100217.92
2019-01-21T19:50:50.520Z,100230.80
2019-01-21T19:53:21.378Z,100229.20
2019-01-21T19:55:52.217Z,100238.05
2019-01-21T19:58:23.111Z,100238.60
2019-01-21T20:00:54.221Z,100236.00
2019-01-21T20:03:25.340Z,100241.44
2019-01-21T20:05:56.167Z,100238.12
2019-01-21T20:08:27.136Z,100240.63
2019-01-21T20:10:57.938Z,100236.39
2019-01-21T20:13:29.506Z,100237.75
2019-01-21T20:16:00.352Z,100237.33
2019-01-21T20:18:31.232Z,100233.59
2019-01-21T20:21:02.114Z,100233.63
2019-01-21T20:23:33.138Z,100236.58
2019-01-21T20:26:04.118Z,100229.72
2019-01-21T20:28:34.912Z,100228.15
2019-01-21T20:31:06.086Z,100233.28
2019-01-21T20:33:36.941Z,100232.94
2019-01-21T20:36:07.734Z,100231.65
2019-01-21T20:38:38.622Z,100235.93
2019-01-21T20:41:09.513Z,100226.17
2019-01-21T20:43:40.362Z,100227.45
2019-01-21T20:46:11.368Z,100227.45
2019-01-21T20:48:42.209Z,100227.81
2019-01-21T20:51:13.170Z,100221.47
2019-01-21T20:53:44.218Z,100219.84
2019-01-21T20:56:15.181Z,100215.64
2019-01-21T20:58:47.347Z,100217.33
2019-01-21T21:01:18.486Z,100219.84
2019-01-21T21:03:49.623Z,100216.31
2019-01-21T21:06:20.744Z,100208.15
2019-01-21T21:08:51.609Z,100201.34
2019-01-21T21:11:22.832Z,100197.64
2019-01-21T21:13:54.097Z,100192.98
2019-01-21T21:16:25.105Z,100191.33
2019-01-21T21:18:56.259Z,100191.78
2019-01-21T21:21:27.438Z,100195.62
2019-01-21T21:23:58.898Z,100195.62
2019-01-21T21:26:32.748Z,100200.66
2019-01-21T21:29:03.844Z,100197.31
2019-01-21T21:31:34.968Z,100196.47
2019-01-21T21:34:06.157Z,100191.42
2019-01-21T21:36:37.037Z,100180.91
2019-01-21T21:39:09.225Z,100179.22
2019-01-21T21:41:40.897Z,100172.45
2019-01-21T21:44:11.829Z,100177.16
2019-01-21T21:46:42.723Z,100171.76
2019-01-21T21:49:13.604Z,100176.02
2019-01-21T21:51:44.662Z,100173.84
2019-01-21T21:54:15.549Z,100173.00
2019-01-21T21:56:46.434Z,100163.70
2019-01-21T21:59:17.511Z,100159.41
2019-01-21T22:01:49.852Z,100155.55
2019-01-21T22:04:20.779Z,100157.33
2019-01-21T22:06:52.034Z,100151.95
2019-01-21T22:09:23.015Z,100147.70
2019-01-21T22:11:54.051Z,100147.63
2019-01-21T22:14:24.928Z,100145.13
2019-01-21T22:16:56.028Z,100143.05
2019-01-21T22:19:27.126Z,100147.22
2019-01-21T22:21:58.425Z,100151.89
2019-01-21T22:24:29.318Z,100149.38
2019-01-21T22:27:00.731Z,100148.97
2019-01-21T22:29:31.586Z,100145.64
2019-01-21T22:32:02.381Z,100147.30
2019-01-21T22:34:33.243Z,100135.95
2019-01-21T22:37:04.264Z,100138.88
2019-01-21T22:39:35.341Z,100133.84
2019-01-21T22:42:06.511Z,100130.84
2019-01-21T22:44:37.812Z,100136.83
2019-01-21T22:47:08.620Z,100137.25
2019-01-21T22:49:39.704Z,100141.90
2019-01-21T22:52:10.655Z,100142.69
2019-01-21T22:54:41.439Z,100136.77
2019-01-21T22:57:12.378Z,100136.31
2019-01-21T22:59:43.225Z,100134.27
2019-01-21T23:02:14.234Z,100136.43
2019-01-21T23:04:45.515Z,100135.64
2019-01-21T23:07:16.774Z,100136.85
2019-01-21T23:09:47.634Z,100128.85
2019-01-21T23:12:18.591Z,100130.60
2019-01-21T23:14:49.893Z,100129.73
2019-01-21T23:17:20.770Z,100134.34
2019-01-21T23:19:51.675Z,100133.11
2019-01-21T23:22:22.541Z,100132.23
2019-01-21T23:24:53.613Z,100127.70
2019-01-21T23:27:24.478Z,100128.98
2019-01-21T23:29:55.336Z,100121.34
2019-01-21T23:32:26.648Z,100119.72
2019-01-21T23:34:57.657Z,100116.34
2019-01-21T23:37:28.758Z,100115.50
2019-01-21T23:39:59.769Z,100110.41
2019-01-21T23:42:30.752Z,100109.59
2019-01-21T23:45:02.369Z,100107.45
2019-01-21T23:47:33.431Z,100104.55
2019-01-21T23:50:05.272Z,100104.15
2019-01-21T23:52:36.290Z,100103.36
2019-01-21T23:55:07.773Z,100106.34
2019-01-21T23:57:38.649Z,100107.10
